Time;durP1;ratioP1;P1;durP2;ratioP2;P2;SDS_P1;SDS_P2;PMS_P1;PMS_P2;Temp;Humidity;BMP_temperature;BMP_pressure;BME280_temperature;BME280_humidity;BME280_pressure;Samples;Min_cycle;Max_cycle;Signal;HPM_P1;HPM_P2
2022/06/01 00:00:08;;;;;;;7.00;4.85;;;;;;;;;;5017919;28;20205;-44
2022/06/01 00:02:57;;;;;;;5.70;5.10;;;;;;;;;;5017700;28;20198;-44
2022/06/01 00:05:25;;;;;;;6.30;4.95;;;;;;;;;;5017707;28;20212;-45
2022/06/01 00:07:53;;;;;;;13.07;5.05;;;;;;;;;;5017909;28;20703;-44
2022/06/01 00:10:20;;;;;;;5.82;5.18;;;;;;;;;;5017998;28;20202;-44
2022/06/01 00:12:47;;;;;;;7.78;5.45;;;;;;;;;;5017782;28;20512;-44
2022/06/01 00:15:16;;;;;;;5.95;5.18;;;;;;;;;;5017879;28;20215;-44
2022/06/01 00:17:43;;;;;;;6.80;5.45;;;;;;;;;;5017198;28;20256;-44
2022/06/01 00:20:10;;;;;;;6.80;5.20;;;;;;;;;;5018244;28;20220;-44
2022/06/01 00:22:37;;;;;;;8.85;5.80;;;;;;;;;;5018093;28;20249;-43
2022/06/01 00:25:07;;;;;;;6.88;5.13;;;;;;;;;;5000212;28;20217;-44
2022/06/01 00:27:36;;;;;;;7.82;5.60;;;;;;;;;;5017826;28;20201;-44
2022/06/01 00:30:05;;;;;;;12.05;6.30;;;;;;;;;;5016526;28;20656;-44
2022/06/01 00:32:32;;;;;;;6.45;5.10;;;;;;;;;;5017488;28;20231;-44
2022/06/01 00:35:00;;;;;;;10.45;6.03;;;;;;;;;;5018098;28;20288;-44
2022/06/01 00:37:27;;;;;;;6.30;5.50;;;;;;;;;;5017443;28;20225;-44
2022/06/01 00:39:54;;;;;;;7.43;5.47;;;;;;;;;;5017395;28;20209;-44
2022/06/01 00:42:25;;;;;;;8.38;5.38;;;;;;;;;;5017540;28;20212;-44
2022/06/01 00:44:53;;;;;;;11.93;5.82;;;;;;;;;;5017520;28;20201;-44
2022/06/01 00:47:22;;;;;;;7.32;5.57;;;;;;;;;;5017074;28;20300;-46
2022/06/01 00:49:57;;;;;;;9.00;5.57;;;;;;;;;;5017181;28;20510;-46
2022/06/01 00:52:35;;;;;;;7.68;5.20;;;;;;;;;;5016724;28;20212;-44
2022/06/01 00:55:26;;;;;;;6.97;5.38;;;;;;;;;;5017316;28;20223;-44
2022/06/01 00:57:59;;;;;;;6.60;5.20;;;;;;;;;;5016326;28;20564;-44
2022/06/01 01:00:28;;;;;;;7.22;5.57;;;;;;;;;;5016388;28;20292;-44
2022/06/01 01:02:59;;;;;;;8.40;5.68;;;;;;;;;;5017088;28;20260;-44
2022/06/01 01:05:27;;;;;;;6.63;5.20;;;;;;;;;;5015827;28;20550;-45
2022/06/01 01:07:56;;;;;;;8.52;5.07;;;;;;;;;;5017709;28;20205;-44
2022/06/01 01:10:23;;;;;;;7.57;5.43;;;;;;;;;;5016359;28;20208;-44
2022/06/01 01:12:56;;;;;;;6.95;5.53;;;;;;;;;;5016891;28;20216;-44
2022/06/01 01:15:27;;;;;;;6.32;5.55;;;;;;;;;;5016777;28;20201;-44
2022/06/01 01:17:54;;;;;;;6.72;5.22;;;;;;;;;;5016109;28;20640;-44
2022/06/01 01:20:21;;;;;;;6.15;5.28;;;;;;;;;;5015627;28;20284;-44
2022/06/01 01:23:05;;;;;;;5.95;5.10;;;;;;;;;;5015886;28;20217;-44
2022/06/01 01:25:35;;;;;;;5.78;4.70;;;;;;;;;;5016420;28;20201;-44
2022/06/01 01:28:05;;;;;;;6.05;4.47;;;;;;;;;;5017101;28;20304;-44
2022/06/01 01:30:38;;;;;;;7.22;4.85;;;;;;;;;;5016530;28;20288;-44
2022/06/01 01:33:16;;;;;;;6.28;5.28;;;;;;;;;;5016222;28;20205;-44
2022/06/01 01:35:47;;;;;;;7.72;5.10;;;;;;;;;;5016205;28;20280;-44
2022/06/01 01:38:42;;;;;;;6.50;4.93;;;;;;;;;;5016339;28;20205;-45
2022/06/01 01:41:25;;;;;;;7.35;4.68;;;;;;;;;;5015890;28;20201;-44
2022/06/01 01:44:00;;;;;;;5.75;5.03;;;;;;;;;;5015414;28;20202;-45
2022/06/01 01:46:28;;;;;;;5.68;4.95;;;;;;;;;;5015092;28;20299;-45
2022/06/01 01:48:56;;;;;;;9.07;5.10;;;;;;;;;;5015778;28;20287;-45
2022/06/01 01:51:25;;;;;;;6.50;5.07;;;;;;;;;;5015628;28;20301;-44
2022/06/01 01:53:54;;;;;;;9.25;5.25;;;;;;;;;;5015863;28;20247;-44
2022/06/01 01:57:02;;;;;;;5.95;5.45;;;;;;;;;;5015454;28;20240;-44
2022/06/01 02:00:06;;;;;;;5.85;5.22;;;;;;;;;;4974850;28;20202;-44
2022/06/01 02:02:48;;;;;;;5.90;5.10;;;;;;;;;;4974880;28;20276;-44
2022/06/01 02:08:06;;;;;;;5.93;4.78;;;;;;;;;;4974811;28;20198;-44
2022/06/01 02:13:20;;;;;;;6.30;5.03;;;;;;;;;;4974396;28;20206;-44
2022/06/01 02:15:49;;;;;;;5.68;4.55;;;;;;;;;;4974509;28;20324;-44
2022/06/01 02:18:23;;;;;;;5.78;4.65;;;;;;;;;;4958583;28;20638;-44
2022/06/01 02:21:04;;;;;;;6.00;5.15;;;;;;;;;;4974708;28;20214;-44
2022/06/01 02:23:31;;;;;;;6.80;4.85;;;;;;;;;;4974689;28;20583;-44
2022/06/01 02:26:00;;;;;;;5.47;4.75;;;;;;;;;;4974448;28;20593;-45
2022/06/01 02:28:29;;;;;;;5.72;4.85;;;;;;;;;;4958673;28;20230;-44
2022/06/01 02:30:57;;;;;;;4.90;4.32;;;;;;;;;;4958519;28;20287;-44
2022/06/01 02:33:27;;;;;;;7.88;5.18;;;;;;;;;;4974336;28;20653;-44
2022/06/01 02:35:59;;;;;;;6.70;4.82;;;;;;;;;;4993865;28;20205;-44
2022/06/01 02:38:48;;;;;;;5.00;4.47;;;;;;;;;;5015374;28;20190;-44
2022/06/01 02:44:02;;;;;;;7.47;4.45;;;;;;;;;;5015087;28;20208;-44
2022/06/01 02:46:29;;;;;;;5.53;4.97;;;;;;;;;;5015285;28;20198;-44
2022/06/01 02:48:57;;;;;;;5.70;4.45;;;;;;;;;;5015066;28;20197;-44
2022/06/01 02:51:26;;;;;;;6.68;4.68;;;;;;;;;;5015337;28;20211;-44
2022/06/01 02:53:53;;;;;;;5.03;4.53;;;;;;;;;;5015360;28;20205;-44
2022/06/01 02:56:20;;;;;;;4.70;4.20;;;;;;;;;;5014866;28;20683;-45
2022/06/01 02:58:48;;;;;;;8.90;4.60;;;;;;;;;;5015096;28;20205;-44
2022/06/01 03:01:15;;;;;;;7.00;4.50;;;;;;;;;;5015183;28;20247;-44
2022/06/01 03:03:42;;;;;;;7.78;4.68;;;;;;;;;;5014955;28;20214;-44
2022/06/01 03:06:09;;;;;;;4.95;4.45;;;;;;;;;;5015024;28;20229;-44
2022/06/01 03:08:36;;;;;;;8.43;4.68;;;;;;;;;;5014984;28;20209;-45
2022/06/01 03:11:03;;;;;;;6.85;4.88;;;;;;;;;;5015221;28;20201;-44
2022/06/01 03:13:31;;;;;;;5.28;4.78;;;;;;;;;;5014985;28;20213;-44
2022/06/01 03:15:58;;;;;;;9.07;4.63;;;;;;;;;;5014942;28;20209;-44
2022/06/01 03:18:25;;;;;;;11.57;4.00;;;;;;;;;;5015226;28;20213;-44
2022/06/01 03:20:52;;;;;;;8.13;4.53;;;;;;;;;;5014960;28;20200;-44
2022/06/01 03:23:19;;;;;;;11.00;4.07;;;;;;;;;;5016035;28;20201;-44
2022/06/01 03:25:46;;;;;;;6.35;4.78;;;;;;;;;;5019034;28;20506;-44
2022/06/01 03:28:14;;;;;;;4.50;4.10;;;;;;;;;;5018817;28;20205;-45
2022/06/01 03:30:41;;;;;;;6.70;4.53;;;;;;;;;;5018778;28;20651;-44
2022/06/01 03:33:08;;;;;;;5.35;4.22;;;;;;;;;;5018508;28;20205;-44
2022/06/01 03:35:37;;;;;;;7.43;4.30;;;;;;;;;;5018526;28;20212;-45
2022/06/01 03:38:04;;;;;;;5.97;4.40;;;;;;;;;;5018356;28;20565;-44
2022/06/01 03:40:32;;;;;;;5.45;4.07;;;;;;;;;;5018493;28;20292;-44
2022/06/01 03:43:00;;;;;;;7.60;4.32;;;;;;;;;;5018591;28;20296;-44
2022/06/01 03:48:14;;;;;;;7.05;4.60;;;;;;;;;;5018653;28;20712;-44
2022/06/01 03:50:42;;;;;;;6.25;4.18;;;;;;;;;;5016963;28;20201;-45
2022/06/01 03:53:09;;;;;;;5.47;3.95;;;;;;;;;;5017334;28;20201;-44
2022/06/01 03:55:36;;;;;;;5.15;4.20;;;;;;;;;;5018414;28;20209;-44
2022/06/01 03:58:04;;;;;;;5.00;4.20;;;;;;;;;;5018691;28;20224;-44
2022/06/01 04:00:31;;;;;;;7.38;4.43;;;;;;;;;;5014748;28;20694;-44
2022/06/01 04:02:58;;;;;;;6.90;3.95;;;;;;;;;;5019851;28;20232;-46
2022/06/01 04:05:25;;;;;;;7.47;4.90;;;;;;;;;;5026473;28;20280;-46
2022/06/01 04:07:52;;;;;;;4.63;4.20;;;;;;;;;;5016842;28;20233;-44
2022/06/01 04:10:20;;;;;;;4.55;4.10;;;;;;;;;;5016641;28;20266;-43
2022/06/01 04:12:47;;;;;;;5.18;4.13;;;;;;;;;;5016981;28;20225;-45
2022/06/01 04:15:15;;;;;;;5.65;4.40;;;;;;;;;;5016093;28;20683;-44
2022/06/01 04:17:42;;;;;;;4.82;3.95;;;;;;;;;;5017093;28;20249;-45
2022/06/01 04:20:10;;;;;;;5.57;4.20;;;;;;;;;;5016958;28;20225;-44
2022/06/01 04:22:40;;;;;;;5.00;3.90;;;;;;;;;;4993975;28;20233;-44
2022/06/01 04:25:09;;;;;;;6.18;4.00;;;;;;;;;;4996966;28;20234;-43
2022/06/01 04:27:38;;;;;;;5.95;4.30;;;;;;;;;;4996403;28;20229;-44
2022/06/01 04:30:11;;;;;;;5.22;4.20;;;;;;;;;;4996298;28;20222;-43
2022/06/01 04:32:38;;;;;;;5.55;4.78;;;;;;;;;;5021031;28;20228;-43
2022/06/01 04:35:06;;;;;;;8.02;3.97;;;;;;;;;;5035467;28;20319;-43
2022/06/01 04:37:33;;;;;;;4.35;3.95;;;;;;;;;;5020172;28;20241;-43
2022/06/01 04:40:08;;;;;;;7.95;4.82;;;;;;;;;;5015516;28;20303;-42
2022/06/01 04:42:36;;;;;;;7.20;4.40;;;;;;;;;;5026615;28;20657;-42
2022/06/01 04:45:04;;;;;;;4.90;4.45;;;;;;;;;;5031029;28;20225;-43
2022/06/01 04:47:31;;;;;;;13.43;5.13;;;;;;;;;;5015173;28;20240;-42
2022/06/01 04:49:58;;;;;;;5.82;4.60;;;;;;;;;;5017032;28;20253;-42
2022/06/01 04:52:25;;;;;;;8.48;4.50;;;;;;;;;;5036264;28;20683;-43
2022/06/01 04:54:52;;;;;;;5.35;4.68;;;;;;;;;;5036124;28;20247;-43
2022/06/01 04:57:19;;;;;;;8.52;5.00;;;;;;;;;;5036138;28;20248;-43
2022/06/01 04:59:46;;;;;;;5.43;4.20;;;;;;;;;;5035399;28;20331;-44
2022/06/01 05:02:14;;;;;;;6.57;5.05;;;;;;;;;;5035993;28;20240;-42
2022/06/01 05:04:41;;;;;;;6.53;4.82;;;;;;;;;;5035798;28;20235;-44
2022/06/01 05:07:08;;;;;;;6.88;4.45;;;;;;;;;;5035835;28;20672;-42
2022/06/01 05:09:35;;;;;;;9.73;4.90;;;;;;;;;;5035143;28;20224;-42
2022/06/01 05:12:02;;;;;;;9.90;5.00;;;;;;;;;;5035789;28;20224;-42
2022/06/01 05:14:29;;;;;;;6.78;4.75;;;;;;;;;;5036426;28;20243;-42
2022/06/01 05:16:58;;;;;;;6.07;4.78;;;;;;;;;;5036988;28;20229;-43
2022/06/01 05:19:25;;;;;;;7.15;4.93;;;;;;;;;;5036284;28;20288;-43
2022/06/01 05:21:53;;;;;;;4.97;4.47;;;;;;;;;;5036356;28;20204;-42
2022/06/01 05:24:20;;;;;;;4.97;4.47;;;;;;;;;;5036196;28;20201;-42
2022/06/01 05:26:47;;;;;;;6.60;4.63;;;;;;;;;;5036871;28;20216;-42
2022/06/01 05:29:13;;;;;;;7.38;4.85;;;;;;;;;;5036139;28;20200;-42
2022/06/01 05:31:41;;;;;;;10.23;4.68;;;;;;;;;;5036633;28;20197;-42
2022/06/01 05:34:08;;;;;;;7.85;4.78;;;;;;;;;;5036136;28;20200;-42
2022/06/01 05:36:35;;;;;;;7.82;4.80;;;;;;;;;;5036318;28;20240;-42
2022/06/01 05:39:03;;;;;;;8.63;4.30;;;;;;;;;;5035336;28;20205;-43
2022/06/01 05:41:30;;;;;;;6.70;4.75;;;;;;;;;;5036118;28;20209;-42
2022/06/01 05:43:58;;;;;;;7.07;4.50;;;;;;;;;;5035907;28;20212;-42
2022/06/01 05:46:26;;;;;;;7.88;4.60;;;;;;;;;;5035365;28;20654;-42
2022/06/01 05:48:52;;;;;;;5.70;5.07;;;;;;;;;;5035566;28;20200;-42
2022/06/01 05:51:20;;;;;;;7.05;4.68;;;;;;;;;;5036597;28;20216;-42
2022/06/01 05:53:47;;;;;;;5.03;4.53;;;;;;;;;;5035860;28;20209;-42
2022/06/01 05:56:14;;;;;;;7.22;5.18;;;;;;;;;;5035680;28;20200;-42
2022/06/01 05:58:41;;;;;;;11.48;5.45;;;;;;;;;;5035855;28;20224;-42
2022/06/01 06:01:09;;;;;;;7.63;4.38;;;;;;;;;;5035780;28;20209;-43
2022/06/01 06:03:36;;;;;;;11.82;5.25;;;;;;;;;;5035697;28;20216;-44
2022/06/01 06:06:12;;;;;;;11.18;6.40;;;;;;;;;;5021826;28;20248;-42
2022/06/01 06:08:42;;;;;;;7.35;4.70;;;;;;;;;;5016256;28;20208;-42
2022/06/01 06:11:16;;;;;;;8.63;5.57;;;;;;;;;;5015682;28;20228;-42
2022/06/01 06:13:44;;;;;;;11.40;6.20;;;;;;;;;;5015599;28;20639;-43
2022/06/01 06:16:12;;;;;;;7.18;5.32;;;;;;;;;;5015804;28;20197;-44
2022/06/01 06:18:39;;;;;;;6.30;4.60;;;;;;;;;;5015668;28;20225;-42
2022/06/01 06:21:07;;;;;;;5.63;4.70;;;;;;;;;;5015745;28;20209;-42
2022/06/01 06:23:34;;;;;;;9.27;5.47;;;;;;;;;;5015615;28;20653;-42
2022/06/01 06:26:01;;;;;;;6.75;4.93;;;;;;;;;;5016167;28;20220;-42
2022/06/01 06:28:28;;;;;;;8.77;5.10;;;;;;;;;;5015568;28;20209;-43
2022/06/01 06:30:55;;;;;;;9.15;5.35;;;;;;;;;;5015569;28;20671;-42
2022/06/01 06:33:22;;;;;;;9.57;5.30;;;;;;;;;;5015961;28;20259;-42
2022/06/01 06:36:02;;;;;;;12.93;6.28;;;;;;;;;;5015820;28;20209;-42
2022/06/01 06:38:31;;;;;;;11.80;5.22;;;;;;;;;;5046886;28;20240;-42
2022/06/01 06:41:00;;;;;;;21.25;6.65;;;;;;;;;;5015359;28;20205;-42
2022/06/01 06:43:29;;;;;;;13.13;6.00;;;;;;;;;;5015479;28;20206;-43
2022/06/01 06:45:59;;;;;;;7.30;5.22;;;;;;;;;;5015226;28;20205;-42
2022/06/01 06:48:27;;;;;;;9.10;5.50;;;;;;;;;;5014557;28;20205;-42
2022/06/01 06:50:54;;;;;;;9.88;5.80;;;;;;;;;;5015103;28;20236;-42
2022/06/01 06:53:22;;;;;;;10.50;6.45;;;;;;;;;;5015137;28;20248;-44
2022/06/01 06:55:50;;;;;;;7.75;5.75;;;;;;;;;;5015281;28;20208;-42
2022/06/01 06:58:18;;;;;;;7.25;5.38;;;;;;;;;;5014801;28;20233;-42
2022/06/01 07:00:45;;;;;;;7.70;6.00;;;;;;;;;;5015317;28;20637;-42
2022/06/01 07:03:13;;;;;;;7.45;6.20;;;;;;;;;;5015136;28;20206;-42
2022/06/01 07:08:27;;;;;;;10.27;5.93;;;;;;;;;;5014817;28;20636;-42
2022/06/01 07:10:55;;;;;;;8.40;6.35;;;;;;;;;;5015096;28;20266;-42
2022/06/01 07:13:23;;;;;;;12.73;6.22;;;;;;;;;;5015155;28;20209;-42
2022/06/01 07:16:06;;;;;;;6.88;5.88;;;;;;;;;;5014707;28;20545;-42
2022/06/01 07:18:34;;;;;;;8.40;6.35;;;;;;;;;;5015111;28;20221;-42
2022/06/01 07:21:01;;;;;;;10.10;6.13;;;;;;;;;;5015377;28;20343;-42
2022/06/01 07:23:34;;;;;;;8.40;6.40;;;;;;;;;;5015118;28;20205;-42
2022/06/01 07:26:02;;;;;;;12.23;6.53;;;;;;;;;;5015239;28;20205;-42
2022/06/01 07:28:29;;;;;;;10.73;7.15;;;;;;;;;;5015090;28;20217;-42
2022/06/01 07:30:56;;;;;;;9.05;6.40;;;;;;;;;;5014900;28;20204;-42
2022/06/01 07:33:26;;;;;;;9.27;6.70;;;;;;;;;;5014930;28;20221;-43
2022/06/01 07:35:53;;;;;;;10.38;7.20;;;;;;;;;;5014781;28;20201;-42
2022/06/01 07:43:55;;;;;;;11.13;7.15;;;;;;;;;;5014323;28;20229;-42
2022/06/01 07:46:22;;;;;;;10.32;7.03;;;;;;;;;;5015402;28;20212;-42
2022/06/01 07:48:49;;;;;;;9.75;6.50;;;;;;;;;;5014703;28;20615;-42
2022/06/01 07:51:38;;;;;;;9.63;6.20;;;;;;;;;;5014647;28;20205;-42
2022/06/01 07:54:05;;;;;;;9.13;6.60;;;;;;;;;;5013814;28;20239;-42
2022/06/01 07:56:32;;;;;;;9.93;6.38;;;;;;;;;;5014693;28;20271;-43
2022/06/01 07:59:00;;;;;;;10.65;6.93;;;;;;;;;;5014411;28;20240;-43
2022/06/01 08:01:27;;;;;;;10.65;7.07;;;;;;;;;;5014739;28;20205;-43
2022/06/01 08:03:56;;;;;;;17.30;7.00;;;;;;;;;;5014866;28;20213;-43
2022/06/01 08:06:25;;;;;;;12.20;6.65;;;;;;;;;;5014321;28;20248;-44
2022/06/01 08:09:13;;;;;;;12.32;7.00;;;;;;;;;;5014599;28;20201;-43
2022/06/01 08:14:25;;;;;;;11.70;6.75;;;;;;;;;;5018211;28;20186;-44
2022/06/01 08:16:53;;;;;;;10.80;6.90;;;;;;;;;;5017813;28;20221;-43
2022/06/01 08:19:20;;;;;;;11.75;7.07;;;;;;;;;;5017844;28;20260;-43
2022/06/01 08:21:47;;;;;;;9.93;7.13;;;;;;;;;;5017678;28;20643;-43
2022/06/01 08:24:14;;;;;;;9.63;6.40;;;;;;;;;;5017635;28;20565;-43
2022/06/01 08:26:41;;;;;;;8.77;7.15;;;;;;;;;;5017894;28;20197;-43
2022/06/01 08:29:08;;;;;;;11.68;6.70;;;;;;;;;;5017410;28;20702;-43
2022/06/01 08:31:35;;;;;;;7.88;6.68;;;;;;;;;;5017663;28;20216;-43
2022/06/01 08:34:04;;;;;;;8.63;6.97;;;;;;;;;;5016544;28;20638;-43
2022/06/01 08:36:32;;;;;;;8.05;6.90;;;;;;;;;;5016587;28;20197;-43
2022/06/01 08:38:59;;;;;;;11.05;7.13;;;;;;;;;;5017533;28;20233;-43
2022/06/01 08:41:34;;;;;;;12.77;7.22;;;;;;;;;;5017420;28;20288;-43
2022/06/01 08:44:22;;;;;;;11.73;6.80;;;;;;;;;;5016882;28;20239;-43
2022/06/01 08:46:50;;;;;;;15.00;7.07;;;;;;;;;;5017832;28;20212;-44
2022/06/01 08:49:26;;;;;;;9.35;7.22;;;;;;;;;;5017237;28;20648;-43
2022/06/01 08:51:54;;;;;;;11.15;7.22;;;;;;;;;;5000246;28;20197;-44
2022/06/01 08:54:22;;;;;;;11.57;7.00;;;;;;;;;;5049245;28;20213;-43
2022/06/01 08:56:52;;;;;;;9.95;7.57;;;;;;;;;;5017155;28;20648;-43
2022/06/01 08:59:18;;;;;;;14.85;8.00;;;;;;;;;;5016036;28;20312;-43
2022/06/01 09:01:56;;;;;;;13.90;7.88;;;;;;;;;;5017123;28;20628;-43
2022/06/01 09:04:43;;;;;;;10.57;8.38;;;;;;;;;;5016136;28;20640;-43
2022/06/01 09:07:21;;;;;;;13.43;8.30;;;;;;;;;;5016202;28;20241;-44
2022/06/01 09:10:03;;;;;;;10.80;7.03;;;;;;;;;;5017152;28;20197;-43
2022/06/01 09:12:33;;;;;;;12.27;8.25;;;;;;;;;;5017239;28;20202;-44
2022/06/01 09:15:12;;;;;;;10.38;7.50;;;;;;;;;;5015401;28;20715;-44
2022/06/01 09:17:43;;;;;;;12.93;8.00;;;;;;;;;;5016599;28;20351;-43
2022/06/01 09:23:11;;;;;;;12.63;7.78;;;;;;;;;;5016821;28;20209;-43
2022/06/01 09:25:38;;;;;;;19.45;8.10;;;;;;;;;;5016453;28;20719;-43
2022/06/01 09:28:26;;;;;;;14.55;8.43;;;;;;;;;;5016814;28;20555;-43
2022/06/01 09:30:58;;;;;;;13.55;8.32;;;;;;;;;;5016508;28;20628;-43
2022/06/01 09:33:27;;;;;;;15.40;9.25;;;;;;;;;;5048587;28;20205;-43
2022/06/01 09:36:06;;;;;;;14.15;10.68;;;;;;;;;;5016399;28;20641;-43
2022/06/01 09:38:38;;;;;;;17.42;11.85;;;;;;;;;;5016975;28;20239;-44
2022/06/01 09:41:08;;;;;;;11.88;9.80;;;;;;;;;;5015711;28;20611;-43
2022/06/01 09:43:40;;;;;;;15.50;10.85;;;;;;;;;;5016307;28;20644;-43
2022/06/01 09:46:08;;;;;;;20.63;11.90;;;;;;;;;;5016555;28;20208;-43
2022/06/01 09:48:38;;;;;;;20.35;11.77;;;;;;;;;;5016217;28;20197;-44
2022/06/01 09:51:08;;;;;;;17.95;12.77;;;;;;;;;;5015177;28;20201;-43
2022/06/01 09:53:51;;;;;;;19.58;12.38;;;;;;;;;;5016331;28;20220;-44
2022/06/01 09:56:30;;;;;;;17.30;12.48;;;;;;;;;;5016412;28;20582;-43
2022/06/01 10:07:24;;;;;;;17.90;10.48;;;;;;;;;;5016520;28;20245;-43
2022/06/01 10:09:54;;;;;;;20.00;10.35;;;;;;;;;;5016075;28;20208;-45
2022/06/01 10:12:40;;;;;;;11.73;9.93;;;;;;;;;;5014748;28;20636;-43
2022/06/01 10:15:19;;;;;;;15.23;10.40;;;;;;;;;;5015698;28;20255;-43
2022/06/01 10:17:50;;;;;;;15.30;9.52;;;;;;;;;;5015650;28;20266;-43
2022/06/01 10:20:29;;;;;;;14.10;10.02;;;;;;;;;;5014943;28;20672;-43
2022/06/01 10:23:05;;;;;;;13.63;9.02;;;;;;;;;;5015300;28;20192;-43
2022/06/01 10:25:41;;;;;;;12.02;9.82;;;;;;;;;;5014879;28;20582;-43
2022/06/01 10:28:18;;;;;;;13.15;11.02;;;;;;;;;;5015705;28;20209;-43
2022/06/01 10:31:36;;;;;;;14.50;11.25;;;;;;;;;;5015593;28;20206;-43
2022/06/01 10:34:18;;;;;;;15.13;10.98;;;;;;;;;;5014357;28;20205;-43
2022/06/01 10:36:52;;;;;;;13.75;9.98;;;;;;;;;;5015773;28;20538;-43
2022/06/01 10:39:32;;;;;;;12.75;9.80;;;;;;;;;;5014487;28;20240;-43
2022/06/01 10:42:24;;;;;;;10.32;8.63;;;;;;;;;;5047297;28;20300;-44
2022/06/01 10:44:58;;;;;;;12.93;9.73;;;;;;;;;;5015161;28;20193;-45
2022/06/01 10:47:53;;;;;;;11.45;6.97;;;;;;;;;;5015069;28;20224;-43
2022/06/01 10:50:23;;;;;;;10.27;6.45;;;;;;;;;;5046545;28;20212;-43
2022/06/01 10:53:02;;;;;;;7.20;5.45;;;;;;;;;;5015090;28;20644;-43
2022/06/01 10:55:34;;;;;;;8.73;5.93;;;;;;;;;;5015239;28;20205;-44
2022/06/01 10:58:01;;;;;;;8.35;5.70;;;;;;;;;;4998309;28;20198;-43
2022/06/01 11:00:37;;;;;;;11.40;5.22;;;;;;;;;;5015086;28;20209;-43
2022/06/01 11:03:25;;;;;;;14.05;5.93;;;;;;;;;;5014465;28;20208;-43
2022/06/01 11:06:17;;;;;;;8.40;5.78;;;;;;;;;;5015214;28;20252;-43
2022/06/01 11:09:02;;;;;;;8.07;5.72;;;;;;;;;;5015134;28;20186;-43
2022/06/01 11:11:45;;;;;;;6.72;4.95;;;;;;;;;;5014977;28;20675;-43
2022/06/01 11:14:21;;;;;;;9.32;4.78;;;;;;;;;;5046901;28;20198;-43
2022/06/01 11:17:01;;;;;;;6.10;4.82;;;;;;;;;;5015449;28;20293;-43
2022/06/01 11:20:03;;;;;;;7.07;3.45;;;;;;;;;;5014707;28;20232;-43
2022/06/01 11:22:54;;;;;;;4.30;2.70;;;;;;;;;;5015009;28;20275;-43
2022/06/01 11:25:51;;;;;;;7.22;3.00;;;;;;;;;;5046979;28;20228;-43
2022/06/01 11:28:31;;;;;;;4.90;3.60;;;;;;;;;;5011323;28;20267;-43
2022/06/01 11:31:08;;;;;;;9.15;4.00;;;;;;;;;;5014904;28;20301;-43
2022/06/01 11:34:04;;;;;;;4.85;3.83;;;;;;;;;;5046345;28;20635;-43
2022/06/01 11:36:37;;;;;;;4.20;3.55;;;;;;;;;;5014210;28;20256;-43
2022/06/01 11:39:32;;;;;;;3.33;2.55;;;;;;;;;;5015039;28;20587;-43
2022/06/01 11:42:23;;;;;;;4.95;2.83;;;;;;;;;;5037438;28;22499;-43
2022/06/01 11:44:58;;;;;;;2.75;2.38;;;;;;;;;;5000903;28;20310;-45
2022/06/01 11:47:26;;;;;;;3.10;2.20;;;;;;;;;;5016170;28;20735;-43
2022/06/01 11:50:18;;;;;;;4.50;3.17;;;;;;;;;;5016474;28;20240;-43
2022/06/01 11:52:52;;;;;;;2.92;2.58;;;;;;;;;;5017184;28;20299;-43
2022/06/01 11:55:34;;;;;;;3.75;2.83;;;;;;;;;;5016716;28;20237;-45
2022/06/01 11:58:27;;;;;;;8.00;2.75;;;;;;;;;;5017311;28;20206;-44
2022/06/01 12:01:10;;;;;;;3.78;2.83;;;;;;;;;;5010410;28;20652;-47
2022/06/01 12:03:42;;;;;;;3.08;2.22;;;;;;;;;;5018317;28;20194;-46
2022/06/01 12:06:14;;;;;;;3.08;2.20;;;;;;;;;;5016998;28;20676;-45
2022/06/01 12:08:49;;;;;;;2.42;1.95;;;;;;;;;;5017197;28;20376;-46
2022/06/01 12:11:40;;;;;;;5.95;2.50;;;;;;;;;;5018285;28;20593;-46
2022/06/01 12:14:28;;;;;;;4.55;2.28;;;;;;;;;;5015393;28;20229;-47
2022/06/01 12:17:17;;;;;;;4.75;2.33;;;;;;;;;;5014939;28;20201;-46
2022/06/01 12:20:11;;;;;;;3.75;2.15;;;;;;;;;;5015937;28;20528;-46
2022/06/01 12:28:51;;;;;;;3.70;2.03;;;;;;;;;;5014969;28;20200;-46
2022/06/01 12:31:31;;;;;;;3.17;2.55;;;;;;;;;;5015465;28;20186;-46
2022/06/01 12:34:14;;;;;;;4.28;2.45;;;;;;;;;;5021271;28;20200;-48
2022/06/01 12:36:44;;;;;;;4.72;2.92;;;;;;;;;;5018746;28;20667;-46
2022/06/01 12:39:33;;;;;;;3.40;2.55;;;;;;;;;;5023018;28;20248;-51
2022/06/01 12:42:13;;;;;;;6.50;2.80;;;;;;;;;;5009497;28;20201;-49
2022/06/01 12:44:43;;;;;;;4.70;2.88;;;;;;;;;;5017499;28;20220;-49
2022/06/01 12:47:30;;;;;;;5.78;2.25;;;;;;;;;;5020574;28;20206;-51
2022/06/01 12:50:06;;;;;;;3.25;2.35;;;;;;;;;;5026713;28;20208;-47
2022/06/01 12:52:33;;;;;;;2.90;2.42;;;;;;;;;;5032149;28;20224;-47
2022/06/01 12:55:05;;;;;;;3.15;2.40;;;;;;;;;;5028756;28;20224;-46
2022/06/01 12:57:37;;;;;;;2.92;2.30;;;;;;;;;;5031124;28;20211;-46
2022/06/01 13:00:08;;;;;;;4.38;2.50;;;;;;;;;;4996398;28;20582;-48
2022/06/01 13:02:37;;;;;;;5.40;2.47;;;;;;;;;;5023508;28;20351;-47
2022/06/01 13:05:08;;;;;;;4.00;2.53;;;;;;;;;;5035847;28;20232;-45
2022/06/01 13:07:38;;;;;;;5.70;2.95;;;;;;;;;;5017774;28;20615;-46
2022/06/01 13:10:31;;;;;;;5.00;3.17;;;;;;;;;;5015256;28;20241;-45
2022/06/01 13:13:12;;;;;;;4.20;2.90;;;;;;;;;;5015572;28;20517;-46
2022/06/01 13:15:41;;;;;;;4.93;3.08;;;;;;;;;;5015486;28;20579;-46
2022/06/01 13:18:14;;;;;;;4.50;3.00;;;;;;;;;;5015851;28;20236;-45
2022/06/01 13:20:43;;;;;;;6.05;2.90;;;;;;;;;;5012482;28;20302;-49
2022/06/01 13:23:17;;;;;;;4.47;3.10;;;;;;;;;;5015674;28;20260;-46
2022/06/01 13:25:46;;;;;;;4.68;3.53;;;;;;;;;;5026628;28;20238;-45
2022/06/01 13:28:13;;;;;;;4.85;3.58;;;;;;;;;;5033985;28;20582;-49
2022/06/01 13:30:40;;;;;;;5.30;3.17;;;;;;;;;;5034821;28;20319;-44
2022/06/01 13:33:22;;;;;;;4.93;3.20;;;;;;;;;;5035744;28;20290;-46
2022/06/01 13:35:59;;;;;;;5.38;2.92;;;;;;;;;;5028720;28;20245;-46
2022/06/01 13:38:44;;;;;;;3.00;2.70;;;;;;;;;;5025994;28;20216;-46
2022/06/01 13:41:16;;;;;;;4.65;2.92;;;;;;;;;;5016338;28;20301;-45
2022/06/01 13:43:45;;;;;;;3.30;2.38;;;;;;;;;;5021863;28;20256;-47
2022/06/01 13:46:30;;;;;;;3.88;3.13;;;;;;;;;;5034389;28;21674;-46
2022/06/01 13:49:00;;;;;;;4.28;3.10;;;;;;;;;;5018313;28;20287;-46
2022/06/01 13:51:35;;;;;;;5.47;2.70;;;;;;;;;;5020344;28;20233;-47
2022/06/01 13:54:18;;;;;;;4.03;2.75;;;;;;;;;;5014514;28;20263;-46
2022/06/01 13:56:45;;;;;;;3.38;2.70;;;;;;;;;;5014010;28;20663;-50
2022/06/01 13:59:33;;;;;;;2.70;2.15;;;;;;;;;;5014585;28;20302;-46
2022/06/01 14:02:13;;;;;;;3.38;2.30;;;;;;;;;;5014974;28;20253;-46
2022/06/01 14:04:48;;;;;;;6.30;3.15;;;;;;;;;;5014959;28;20237;-49
2022/06/01 14:07:18;;;;;;;3.80;2.58;;;;;;;;;;5014510;28;20241;-49
2022/06/01 14:09:53;;;;;;;4.18;2.10;;;;;;;;;;5014305;28;20233;-47
2022/06/01 14:12:21;;;;;;;2.95;1.98;;;;;;;;;;5014310;28;20221;-47
2022/06/01 14:14:50;;;;;;;8.40;2.22;;;;;;;;;;5014823;28;20233;-49
2022/06/01 14:17:21;;;;;;;2.65;1.80;;;;;;;;;;5014115;28;20288;-48
2022/06/01 14:19:48;;;;;;;4.57;1.75;;;;;;;;;;5014822;28;20229;-47
2022/06/01 14:22:15;;;;;;;3.05;1.88;;;;;;;;;;5014091;28;20230;-49
2022/06/01 14:30:15;;;;;;;3.03;1.67;;;;;;;;;;5014742;28;20320;-49
2022/06/01 14:32:45;;;;;;;5.32;1.80;;;;;;;;;;5014771;28;20320;-48
2022/06/01 14:35:15;;;;;;;1.92;1.42;;;;;;;;;;5014617;28;20371;-47
2022/06/01 14:37:43;;;;;;;4.47;1.67;;;;;;;;;;5014597;28;20229;-48
2022/06/01 14:40:11;;;;;;;1.65;1.40;;;;;;;;;;5014508;28;20240;-48
2022/06/01 14:42:38;;;;;;;5.05;1.40;;;;;;;;;;5014219;28;20244;-48
2022/06/01 14:45:06;;;;;;;3.03;1.38;;;;;;;;;;5014269;28;20243;-47
2022/06/01 14:47:33;;;;;;;2.15;1.42;;;;;;;;;;5014441;28;20233;-47
2022/06/01 14:50:00;;;;;;;3.08;1.38;;;;;;;;;;5014273;28;20287;-48
2022/06/01 14:52:28;;;;;;;2.88;1.48;;;;;;;;;;5014177;28;20287;-49
2022/06/01 14:54:55;;;;;;;1.30;1.00;;;;;;;;;;5014382;28;20249;-47
2022/06/01 14:57:22;;;;;;;1.88;1.30;;;;;;;;;;5015244;28;20204;-48
2022/06/01 14:59:49;;;;;;;2.97;1.10;;;;;;;;;;5014988;28;20251;-46
2022/06/01 15:02:18;;;;;;;4.50;1.70;;;;;;;;;;5015000;28;20533;-49
2022/06/01 15:04:47;;;;;;;3.00;1.63;;;;;;;;;;5013784;28;20632;-49
2022/06/01 15:07:17;;;;;;;2.00;1.13;;;;;;;;;;5013897;28;20588;-50
2022/06/01 15:09:44;;;;;;;3.10;1.38;;;;;;;;;;5014934;28;20275;-51
2022/06/01 15:12:11;;;;;;;2.72;1.50;;;;;;;;;;5015009;28;20208;-49
2022/06/01 15:14:38;;;;;;;2.83;1.30;;;;;;;;;;5014852;28;20216;-48
2022/06/01 15:17:12;;;;;;;1.83;1.33;;;;;;;;;;5014718;28;20555;-48
2022/06/01 15:19:41;;;;;;;6.97;1.50;;;;;;;;;;5016138;28;20300;-51
2022/06/01 15:22:09;;;;;;;2.92;1.60;;;;;;;;;;5018934;28;20209;-49
2022/06/01 15:24:36;;;;;;;2.75;1.50;;;;;;;;;;5018560;28;20220;-49
2022/06/01 15:27:04;;;;;;;1.67;1.10;;;;;;;;;;5018870;28;20292;-49
2022/06/01 15:40:37;;;;;;;4.63;2.10;;;;;;;;;;5018050;28;20806;-52
2022/06/01 15:43:04;;;;;;;3.88;1.40;;;;;;;;;;5018975;28;20198;-48
2022/06/01 15:45:38;;;;;;;2.20;1.50;;;;;;;;;;5018348;28;20304;-48
2022/06/01 15:48:08;;;;;;;3.33;1.52;;;;;;;;;;5017726;28;20642;-46
2022/06/01 15:50:38;;;;;;;3.95;1.55;;;;;;;;;;5018492;28;20197;-46
2022/06/01 15:53:05;;;;;;;2.05;1.40;;;;;;;;;;5018391;28;20613;-50
2022/06/01 15:55:32;;;;;;;2.92;1.02;;;;;;;;;;5015919;28;20256;-51
2022/06/01 15:57:59;;;;;;;7.93;1.27;;;;;;;;;;5012859;28;20248;-49
2022/06/01 16:00:27;;;;;;;3.65;0.85;;;;;;;;;;5016930;28;20233;-44
2022/06/01 16:02:55;;;;;;;1.58;1.10;;;;;;;;;;5017446;28;20232;-45
2022/06/01 16:05:23;;;;;;;1.33;1.00;;;;;;;;;;5017063;28;20225;-44